Time;durP1;ratioP1;P1;durP2;ratioP2;P2;SDS_P1;SDS_P2;PMS_P1;PMS_P2;Temp;Humidity;BMP_temperature;BMP_pressure;BME280_temperature;BME280_humidity;BME280_pressure;Samples;Min_cycle;Max_cycle;Signal;HPM_P1;HPM_P2
2023/05/21 00:00:19;;;;;;;18.67;16.90;;;;;;;;;;5021531;28;20462;-75
2023/05/21 00:03:03;;;;;;;20.47;18.47;;;;;;;;;;5018973;28;20483;-76
2023/05/21 00:05:48;;;;;;;19.90;18.00;;;;;;;;;;5019609;28;20570;-76
2023/05/21 00:08:30;;;;;;;19.07;17.47;;;;;;;;;;5017857;28;20477;-75
2023/05/21 00:11:21;;;;;;;19.67;17.93;;;;;;;;;;5017758;28;20451;-75
2023/05/21 00:14:05;;;;;;;19.57;17.67;;;;;;;;;;5016908;28;20548;-76
2023/05/21 00:16:41;;;;;;;22.23;20.23;;;;;;;;;;5017732;28;20436;-76
2023/05/21 00:19:25;;;;;;;19.07;17.47;;;;;;;;;;5017191;28;20461;-76
2023/05/21 00:21:57;;;;;;;19.20;17.50;;;;;;;;;;5018662;28;20483;-76
2023/05/21 00:24:25;;;;;;;21.67;19.73;;;;;;;;;;5019758;28;20456;-76
2023/05/21 00:27:07;;;;;;;21.13;19.17;;;;;;;;;;5019794;28;20749;-74
2023/05/21 00:29:46;;;;;;;20.20;18.40;;;;;;;;;;5020049;28;20483;-75
2023/05/21 00:32:20;;;;;;;21.50;19.60;;;;;;;;;;5017727;28;20527;-76
2023/05/21 00:34:51;;;;;;;19.90;18.00;;;;;;;;;;5016145;28;20451;-75
2023/05/21 00:37:23;;;;;;;20.83;19.07;;;;;;;;;;5017506;28;20546;-75
2023/05/21 00:40:07;;;;;;;20.17;18.40;;;;;;;;;;5022996;28;20471;-76
2023/05/21 00:42:39;;;;;;;20.90;19.00;;;;;;;;;;5023783;28;20543;-76
2023/05/21 00:45:18;;;;;;;19.33;17.30;;;;;;;;;;5024117;28;20447;-75
2023/05/21 00:47:54;;;;;;;20.80;18.90;;;;;;;;;;5023293;28;20511;-75
2023/05/21 00:50:29;;;;;;;20.30;18.17;;;;;;;;;;5023313;28;20498;-74
2023/05/21 00:53:14;;;;;;;20.03;18.13;;;;;;;;;;5022097;28;20460;-75
2023/05/21 00:55:52;;;;;;;21.53;19.73;;;;;;;;;;5018851;28;20475;-75
2023/05/21 00:58:51;;;;;;;;;;;;;;;;;;;;;
2023/05/21 01:01:26;;;;;;;19.57;17.93;;;;;;;;;;5013810;28;20555;-75
2023/05/21 01:06:55;;;;;;;;;;;;;;;;;;;;;
2023/05/21 01:19:03;;;;;;;22.17;19.77;;;;;;;;;;5016803;28;20428;-76
2023/05/21 01:21:47;;;;;;;20.50;17.80;;;;;;;;;;5004507;28;20484;-75
2023/05/21 01:24:29;;;;;;;21.87;19.97;;;;;;;;;;5002789;28;20467;-76
2023/05/21 01:27:09;;;;;;;21.10;19.27;;;;;;;;;;5004469;28;20460;-76
2023/05/21 01:32:52;;;;;;;22.40;20.20;;;;;;;;;;5003047;28;20429;-75
2023/05/21 01:38:43;;;;;;;21.53;19.40;;;;;;;;;;4943346;29;20537;-75
2023/05/21 01:41:17;;;;;;;21.37;19.27;;;;;;;;;;5000837;28;20484;-75
2023/05/21 01:53:35;;;;;;;22.60;20.50;;;;;;;;;;4996602;28;20428;-76
2023/05/21 02:14:42;;;;;;;21.50;19.50;;;;;;;;;;4920522;29;20920;-76
2023/05/21 02:20:23;;;;;;;23.20;21.10;;;;;;;;;;4932827;29;20478;-75
2023/05/21 02:23:11;;;;;;;23.00;20.87;;;;;;;;;;4942867;29;20713;-75
2023/05/21 02:25:56;;;;;;;22.00;19.97;;;;;;;;;;4981148;28;20483;-75
2023/05/21 02:28:49;;;;;;;;;;;;;;;;;;;;;
2023/05/21 02:31:26;;;;;;;22.60;20.37;;;;;;;;;;5020208;28;21083;-75
2023/05/21 02:37:08;;;;;;;24.80;22.60;;;;;;;;;;4997826;28;20443;-75
2023/05/21 02:39:56;;;;;;;22.53;20.43;;;;;;;;;;4948784;28;20486;-76
2023/05/21 02:45:37;;;;;;;23.23;20.93;;;;;;;;;;5019708;28;20439;-75
2023/05/21 02:48:27;;;;;;;23.07;20.77;;;;;;;;;;5022357;28;20451;-74
2023/05/21 02:56:53;;;;;;;23.03;21.00;;;;;;;;;;5021494;28;20827;-76
2023/05/21 02:59:26;;;;;;;22.40;20.33;;;;;;;;;;5022427;28;20455;-75
2023/05/21 03:02:04;;;;;;;22.77;20.67;;;;;;;;;;5022551;28;20570;-75
2023/05/21 03:04:37;;;;;;;22.60;20.40;;;;;;;;;;5021279;28;20467;-75
2023/05/21 03:07:27;;;;;;;24.17;21.87;;;;;;;;;;5021862;28;20439;-76
2023/05/21 03:09:55;;;;;;;22.87;20.80;;;;;;;;;;5020292;28;20534;-75
2023/05/21 03:12:28;;;;;;;23.37;21.17;;;;;;;;;;5021088;28;20450;-76
2023/05/21 03:15:15;;;;;;;23.50;21.20;;;;;;;;;;5022389;28;20454;-74
2023/05/21 03:17:45;;;;;;;24.40;21.90;;;;;;;;;;5022872;28;20495;-76
2023/05/21 03:20:19;;;;;;;23.67;21.37;;;;;;;;;;5021062;28;20533;-74
2023/05/21 03:23:14;;;;;;;23.97;21.57;;;;;;;;;;5020397;28;20503;-75
2023/05/21 03:25:52;;;;;;;23.83;21.53;;;;;;;;;;5017280;28;20602;-76
2023/05/21 03:28:53;;;;;;;22.80;20.80;;;;;;;;;;5019084;28;20451;-75
2023/05/21 03:34:15;;;;;;;24.30;22.07;;;;;;;;;;5016845;28;20439;-77
2023/05/21 03:37:02;;;;;;;23.07;20.97;;;;;;;;;;5020447;28;20895;-75
2023/05/21 03:39:31;;;;;;;24.13;21.80;;;;;;;;;;5020048;28;20473;-75
2023/05/21 03:42:05;;;;;;;22.83;20.40;;;;;;;;;;5015026;28;20513;-75
2023/05/21 03:44:41;;;;;;;24.60;22.00;;;;;;;;;;5013792;28;20504;-76
2023/05/21 03:47:18;;;;;;;24.17;21.97;;;;;;;;;;5013580;28;20463;-75
2023/05/21 03:50:10;;;;;;;;;;;;;;;;;;;;;
2023/05/21 03:56:14;;;;;;;24.50;22.10;;;;;;;;;;4877841;29;20434;-74
2023/05/21 03:59:00;;;;;;;23.50;21.00;;;;;;;;;;4897002;28;20462;-76
2023/05/21 04:01:57;;;;;;;25.93;23.10;;;;;;;;;;5014974;28;20456;-76
2023/05/21 04:07:45;;;;;;;25.80;23.33;;;;;;;;;;5027055;28;20432;-74
2023/05/21 04:10:26;;;;;;;23.63;21.27;;;;;;;;;;5025559;28;20490;-75
2023/05/21 04:12:58;;;;;;;26.50;23.63;;;;;;;;;;5024715;28;20443;-75
2023/05/21 04:15:34;;;;;;;24.43;22.10;;;;;;;;;;5023953;28;20843;-75
2023/05/21 04:18:25;;;;;;;24.60;22.27;;;;;;;;;;5022269;28;20529;-77
2023/05/21 04:21:06;;;;;;;25.20;22.70;;;;;;;;;;5019571;28;20475;-77
2023/05/21 04:23:49;;;;;;;24.30;22.00;;;;;;;;;;5013116;28;20489;-75
2023/05/21 04:26:22;;;;;;;24.63;22.33;;;;;;;;;;5014342;28;20878;-76
2023/05/21 04:28:56;;;;;;;23.87;21.47;;;;;;;;;;5014382;28;20450;-76
2023/05/21 04:31:27;;;;;;;26.10;23.50;;;;;;;;;;5014502;28;20478;-76
2023/05/21 04:34:06;;;;;;;23.23;21.10;;;;;;;;;;5014145;28;20551;-76
2023/05/21 04:36:44;;;;;;;26.03;23.63;;;;;;;;;;5014567;28;20470;-74
2023/05/21 04:39:24;;;;;;;25.03;22.73;;;;;;;;;;5015038;28;20553;-75
2023/05/21 04:42:09;;;;;;;26.67;23.80;;;;;;;;;;5015715;28;20463;-76
2023/05/21 04:44:58;;;;;;;24.80;22.17;;;;;;;;;;5014738;28;20427;-76
2023/05/21 04:47:28;;;;;;;25.00;22.43;;;;;;;;;;5015569;28;20451;-76
2023/05/21 04:50:33;;;;;;;25.90;23.40;;;;;;;;;;5014098;28;20546;-75
2023/05/21 04:53:03;;;;;;;25.07;22.70;;;;;;;;;;5015329;28;20458;-76
2023/05/21 04:56:00;;;;;;;24.67;22.20;;;;;;;;;;5015297;28;20526;-75
2023/05/21 04:58:42;;;;;;;24.90;22.33;;;;;;;;;;4999345;28;20483;-76
2023/05/21 05:01:11;;;;;;;27.57;24.80;;;;;;;;;;5015512;28;20482;-75
2023/05/21 05:03:39;;;;;;;26.23;23.93;;;;;;;;;;5016009;28;20537;-75
2023/05/21 05:06:10;;;;;;;24.63;22.33;;;;;;;;;;5019376;28;20447;-76
2023/05/21 05:08:43;;;;;;;24.97;22.70;;;;;;;;;;5019466;28;20443;-77
2023/05/21 05:11:19;;;;;;;24.60;22.33;;;;;;;;;;5019136;28;20614;-76
2023/05/21 05:13:54;;;;;;;30.53;27.40;;;;;;;;;;5018168;28;20459;-75
2023/05/21 05:16:24;;;;;;;28.10;25.47;;;;;;;;;;5018555;28;20443;-75
2023/05/21 05:18:54;;;;;;;25.67;23.30;;;;;;;;;;5017686;28;20515;-75
2023/05/21 05:21:23;;;;;;;25.23;22.87;;;;;;;;;;5016392;28;20434;-76
2023/05/21 05:23:52;;;;;;;24.60;21.73;;;;;;;;;;5015455;28;20557;-76
2023/05/21 05:26:25;;;;;;;24.20;21.80;;;;;;;;;;5017150;28;20517;-75
2023/05/21 05:28:54;;;;;;;25.60;22.90;;;;;;;;;;5018035;28;20444;-75
2023/05/21 05:31:25;;;;;;;23.87;21.70;;;;;;;;;;5017668;28;20522;-75
2023/05/21 05:33:53;;;;;;;23.80;21.57;;;;;;;;;;5017894;28;20439;-74
2023/05/21 05:36:23;;;;;;;25.13;22.67;;;;;;;;;;5018072;28;20459;-76
2023/05/21 05:38:50;;;;;;;23.40;21.20;;;;;;;;;;5017323;28;20753;-75
2023/05/21 05:41:18;;;;;;;25.20;22.57;;;;;;;;;;5016909;28;20491;-74
2023/05/21 05:44:01;;;;;;;24.20;21.60;;;;;;;;;;5016300;28;20475;-74
2023/05/21 05:46:39;;;;;;;25.03;22.60;;;;;;;;;;5014849;28;20545;-75
2023/05/21 05:49:19;;;;;;;24.67;22.37;;;;;;;;;;5015210;28;20550;-74
2023/05/21 05:51:50;;;;;;;26.10;22.90;;;;;;;;;;5014136;28;20451;-73
2023/05/21 05:54:19;;;;;;;23.33;21.30;;;;;;;;;;5014566;28;20517;-75
2023/05/21 05:56:53;;;;;;;23.10;20.80;;;;;;;;;;5012731;28;20538;-75
2023/05/21 05:59:32;;;;;;;24.17;21.77;;;;;;;;;;5017062;28;20599;-75
2023/05/21 06:02:00;;;;;;;24.30;22.03;;;;;;;;;;5015373;28;20457;-75
2023/05/21 06:04:34;;;;;;;25.47;22.57;;;;;;;;;;5017056;28;20482;-76
2023/05/21 06:07:10;;;;;;;25.00;22.50;;;;;;;;;;5023050;28;20451;-77
2023/05/21 06:09:38;;;;;;;26.27;23.67;;;;;;;;;;5022713;28;20481;-77
2023/05/21 06:14:51;;;;;;;26.30;23.50;;;;;;;;;;5017023;28;20511;-75
2023/05/21 06:17:24;;;;;;;23.17;20.97;;;;;;;;;;5019962;28;20471;-76
2023/05/21 06:19:52;;;;;;;24.83;22.53;;;;;;;;;;5019339;28;20471;-76
2023/05/21 06:22:20;;;;;;;23.93;21.73;;;;;;;;;;5019462;28;20474;-75
2023/05/21 06:24:49;;;;;;;23.97;21.57;;;;;;;;;;5019821;28;20486;-77
2023/05/21 06:27:18;;;;;;;22.67;20.43;;;;;;;;;;5017914;28;20462;-76
2023/05/21 06:29:47;;;;;;;23.03;20.83;;;;;;;;;;5018182;28;20479;-76
2023/05/21 06:35:07;;;;;;;23.20;21.00;;;;;;;;;;5022596;28;20435;-77
2023/05/21 06:37:39;;;;;;;23.17;20.90;;;;;;;;;;5021203;28;20455;-76
2023/05/21 06:40:08;;;;;;;23.97;21.47;;;;;;;;;;5018393;28;20494;-75
2023/05/21 06:42:41;;;;;;;22.80;20.70;;;;;;;;;;5019553;28;20501;-76
2023/05/21 06:45:09;;;;;;;22.57;20.47;;;;;;;;;;5020285;28;20502;-76
2023/05/21 06:47:40;;;;;;;21.70;19.80;;;;;;;;;;5018632;28;20452;-76
2023/05/21 06:50:10;;;;;;;22.90;20.80;;;;;;;;;;5019159;28;20475;-76
2023/05/21 06:52:39;;;;;;;22.87;20.63;;;;;;;;;;5021358;28;20482;-76
2023/05/21 06:55:26;;;;;;;24.00;21.80;;;;;;;;;;5020238;28;21039;-77
2023/05/21 06:57:54;;;;;;;21.60;19.60;;;;;;;;;;5022897;28;20562;-78
2023/05/21 07:00:24;;;;;;;22.00;20.10;;;;;;;;;;5019850;28;20495;-77
2023/05/21 07:02:57;;;;;;;20.53;18.73;;;;;;;;;;5018032;28;20447;-75
2023/05/21 07:05:28;;;;;;;20.37;18.47;;;;;;;;;;5028798;28;20462;-75
2023/05/21 07:07:59;;;;;;;20.77;18.87;;;;;;;;;;5029976;28;20539;-77
2023/05/21 07:10:31;;;;;;;21.10;19.20;;;;;;;;;;5031345;28;20494;-76
2023/05/21 07:12:59;;;;;;;19.90;18.20;;;;;;;;;;5029827;28;20539;-76
2023/05/21 07:15:28;;;;;;;21.07;19.23;;;;;;;;;;5031778;28;20506;-76
2023/05/21 07:17:57;;;;;;;21.30;19.30;;;;;;;;;;5030079;28;20458;-77
2023/05/21 07:20:28;;;;;;;21.50;19.20;;;;;;;;;;5029670;28;20471;-76
2023/05/21 07:22:56;;;;;;;19.90;18.10;;;;;;;;;;5030881;28;20447;-76
2023/05/21 07:25:27;;;;;;;21.03;19.03;;;;;;;;;;5029049;28;20444;-77
2023/05/21 07:27:57;;;;;;;21.73;19.73;;;;;;;;;;5030541;28;20458;-75
2023/05/21 07:30:27;;;;;;;20.67;18.77;;;;;;;;;;5030090;28;20487;-75
2023/05/21 07:32:58;;;;;;;21.10;19.30;;;;;;;;;;5029296;28;20455;-76
2023/05/21 07:35:33;;;;;;;20.80;18.80;;;;;;;;;;5030345;28;20444;-78
2023/05/21 07:38:08;;;;;;;20.10;18.20;;;;;;;;;;5030858;28;20423;-76
2023/05/21 07:40:37;;;;;;;18.53;16.80;;;;;;;;;;5029168;28;20470;-76
2023/05/21 07:43:08;;;;;;;19.03;17.43;;;;;;;;;;5028921;28;20455;-75
2023/05/21 07:45:41;;;;;;;18.73;17.13;;;;;;;;;;5028832;28;20451;-76
2023/05/21 07:48:13;;;;;;;19.03;17.10;;;;;;;;;;5028879;28;20519;-77
2023/05/21 07:50:43;;;;;;;20.30;18.50;;;;;;;;;;5029000;28;20455;-75
2023/05/21 07:53:13;;;;;;;19.77;18.00;;;;;;;;;;5028074;28;20463;-76
2023/05/21 07:55:46;;;;;;;18.00;16.40;;;;;;;;;;5029049;28;20447;-76
2023/05/21 07:58:17;;;;;;;17.90;16.40;;;;;;;;;;5030371;28;20451;-77
2023/05/21 08:01:01;;;;;;;19.13;17.43;;;;;;;;;;5031652;28;20470;-75
2023/05/21 08:03:30;;;;;;;18.83;17.20;;;;;;;;;;5026909;28;20478;-76
2023/05/21 08:05:58;;;;;;;19.27;17.60;;;;;;;;;;5028402;28;20447;-76
2023/05/21 08:08:26;;;;;;;18.83;17.13;;;;;;;;;;5027513;28;20452;-76
2023/05/21 08:10:53;;;;;;;18.07;16.40;;;;;;;;;;5025993;28;20498;-76
2023/05/21 08:13:21;;;;;;;17.77;16.30;;;;;;;;;;5024941;28;20451;-76
2023/05/21 08:15:55;;;;;;;17.80;16.20;;;;;;;;;;5024988;28;20458;-75
2023/05/21 08:18:29;;;;;;;18.30;16.63;;;;;;;;;;5027843;28;20451;-76
2023/05/21 08:21:00;;;;;;;18.03;16.53;;;;;;;;;;5028265;28;20475;-76
2023/05/21 08:23:38;;;;;;;18.00;16.30;;;;;;;;;;5029627;28;20514;-77
2023/05/21 08:26:09;;;;;;;17.43;15.90;;;;;;;;;;5031472;28;20475;-76
2023/05/21 08:28:43;;;;;;;16.03;14.63;;;;;;;;;;5027983;28;20460;-76
2023/05/21 08:31:12;;;;;;;16.70;15.30;;;;;;;;;;5029585;28;20482;-75
2023/05/21 08:33:41;;;;;;;17.57;16.07;;;;;;;;;;5027968;28;20439;-77
2023/05/21 08:36:30;;;;;;;16.37;15.03;;;;;;;;;;5030595;28;20427;-77
2023/05/21 08:38:59;;;;;;;17.17;15.67;;;;;;;;;;5032935;28;20448;-77
2023/05/21 08:41:32;;;;;;;17.83;16.33;;;;;;;;;;5033275;28;20482;-77
2023/05/21 08:44:02;;;;;;;17.63;16.10;;;;;;;;;;5029500;28;20497;-77
2023/05/21 08:46:33;;;;;;;16.97;15.47;;;;;;;;;;5030003;28;20539;-75
2023/05/21 08:49:03;;;;;;;17.50;15.87;;;;;;;;;;5027943;28;20470;-76
2023/05/21 08:51:31;;;;;;;18.47;16.93;;;;;;;;;;5029974;28;20447;-75
2023/05/21 08:54:02;;;;;;;18.70;17.20;;;;;;;;;;5029090;28;20499;-76
2023/05/21 08:56:34;;;;;;;17.80;16.27;;;;;;;;;;5028926;28;20459;-77
2023/05/21 08:59:03;;;;;;;16.70;15.10;;;;;;;;;;5026956;28;20467;-77
2023/05/21 09:01:34;;;;;;;17.10;15.50;;;;;;;;;;5026319;28;20539;-77
2023/05/21 09:04:02;;;;;;;17.60;15.80;;;;;;;;;;5025606;28;20467;-79
2023/05/21 09:06:33;;;;;;;16.97;15.47;;;;;;;;;;5027613;28;20451;-76
2023/05/21 09:09:05;;;;;;;16.07;14.67;;;;;;;;;;5026097;28;20444;-76
2023/05/21 09:11:37;;;;;;;17.80;16.30;;;;;;;;;;5026193;28;20459;-78
2023/05/21 09:14:05;;;;;;;15.93;14.70;;;;;;;;;;5024902;28;20446;-76
2023/05/21 09:16:32;;;;;;;15.83;14.43;;;;;;;;;;5025997;28;20436;-77
2023/05/21 09:19:12;;;;;;;16.00;14.70;;;;;;;;;;5024902;28;20959;-77
2023/05/21 09:24:34;;;;;;;14.53;13.40;;;;;;;;;;5024217;28;20531;-76
2023/05/21 09:27:04;;;;;;;13.80;12.70;;;;;;;;;;5027020;28;20462;-77
2023/05/21 09:29:34;;;;;;;13.73;12.43;;;;;;;;;;5027122;28;20452;-76
2023/05/21 09:32:13;;;;;;;13.83;12.63;;;;;;;;;;5025022;28;20432;-77
2023/05/21 09:34:45;;;;;;;14.43;13.20;;;;;;;;;;5021957;28;20435;-78
2023/05/21 09:37:17;;;;;;;12.90;12.00;;;;;;;;;;5020613;28;20529;-77
2023/05/21 09:39:56;;;;;;;13.30;12.20;;;;;;;;;;5021345;28;20475;-76
2023/05/21 09:42:24;;;;;;;12.27;11.33;;;;;;;;;;5026328;28;20454;-75
2023/05/21 09:44:53;;;;;;;13.33;12.13;;;;;;;;;;5028777;28;20538;-74
2023/05/21 09:47:30;;;;;;;12.70;11.70;;;;;;;;;;5033337;28;20460;-75
2023/05/21 09:50:04;;;;;;;12.40;11.20;;;;;;;;;;5027962;28;20881;-76
2023/05/21 09:52:45;;;;;;;11.33;10.40;;;;;;;;;;5028468;28;20459;-77
2023/05/21 09:55:15;;;;;;;12.43;11.30;;;;;;;;;;5028425;28;20470;-75
2023/05/21 09:57:44;;;;;;;12.90;11.80;;;;;;;;;;5025816;28;20439;-76
2023/05/21 10:00:21;;;;;;;12.57;11.57;;;;;;;;;;5024273;28;20479;-76
2023/05/21 10:02:50;;;;;;;12.97;11.97;;;;;;;;;;5023594;28;20458;-75
2023/05/21 10:08:04;;;;;;;12.23;11.13;;;;;;;;;;4992617;28;20427;-76
2023/05/21 10:10:51;;;;;;;13.30;12.23;;;;;;;;;;5024966;28;20552;-75
2023/05/21 10:13:39;;;;;;;13.37;12.27;;;;;;;;;;5020696;28;20474;-76
2023/05/21 10:16:35;;;;;;;13.57;12.47;;;;;;;;;;5021530;28;20521;-75
2023/05/21 10:19:13;;;;;;;13.20;12.00;;;;;;;;;;5014474;28;20455;-76
2023/05/21 10:21:50;;;;;;;14.77;13.03;;;;;;;;;;5026596;28;20462;-77
2023/05/21 10:24:18;;;;;;;13.53;12.50;;;;;;;;;;5028449;28;20549;-76
2023/05/21 10:26:47;;;;;;;14.10;12.83;;;;;;;;;;5025712;28;20505;-77
2023/05/21 10:29:16;;;;;;;12.47;11.20;;;;;;;;;;5024782;28;20520;-77
2023/05/21 10:31:48;;;;;;;12.80;11.80;;;;;;;;;;5027787;28;20455;-75
2023/05/21 10:34:17;;;;;;;13.20;11.83;;;;;;;;;;5023388;28;20447;-75
2023/05/21 10:36:44;;;;;;;13.13;11.97;;;;;;;;;;5023974;28;20866;-75
2023/05/21 10:39:13;;;;;;;12.17;11.17;;;;;;;;;;5023274;28;20482;-75
2023/05/21 10:41:49;;;;;;;12.20;11.20;;;;;;;;;;5023599;28;20471;-75
2023/05/21 10:44:23;;;;;;;12.70;11.70;;;;;;;;;;5025105;28;20474;-77
2023/05/21 10:47:00;;;;;;;13.10;12.00;;;;;;;;;;5026844;28;20579;-76
2023/05/21 10:49:38;;;;;;;11.83;10.93;;;;;;;;;;5026186;28;20497;-77
2023/05/21 10:52:11;;;;;;;12.33;11.20;;;;;;;;;;5025644;28;20507;-75
2023/05/21 10:55:00;;;;;;;12.30;11.30;;;;;;;;;;5025720;28;20440;-78
2023/05/21 10:57:35;;;;;;;12.70;11.70;;;;;;;;;;5023977;28;20455;-76
2023/05/21 11:00:04;;;;;;;11.60;10.70;;;;;;;;;;5025081;28;20467;-76
2023/05/21 11:02:35;;;;;;;12.80;11.80;;;;;;;;;;5025203;28;20486;-76
2023/05/21 11:05:04;;;;;;;13.63;12.33;;;;;;;;;;5024286;28;20806;-75
2023/05/21 11:07:50;;;;;;;13.07;11.70;;;;;;;;;;5024831;28;20471;-76
2023/05/21 11:10:37;;;;;;;12.70;11.70;;;;;;;;;;5024715;28;20498;-77
2023/05/21 11:13:09;;;;;;;12.60;11.53;;;;;;;;;;5024951;28;20446;-76
2023/05/21 11:15:56;;;;;;;13.17;11.97;;;;;;;;;;5023675;28;20440;-76
2023/05/21 11:18:54;;;;;;;12.43;11.43;;;;;;;;;;5026571;28;20439;-78
2023/05/21 11:21:31;;;;;;;12.60;11.60;;;;;;;;;;5025460;28;20470;-76
2023/05/21 11:24:45;;;;;;;;;;;;;;;;;;;;;
2023/05/21 11:27:13;;;;;;;12.73;11.73;;;;;;;;;;5027961;28;20431;-77
2023/05/21 11:30:09;;;;;;;12.40;11.40;;;;;;;;;;5029659;28;20468;-77
2023/05/21 11:33:11;;;;;;;;;;;;;;;;;;;;;
2023/05/21 11:35:57;;;;;;;11.63;10.73;;;;;;;;;;5029657;28;20447;-76
2023/05/21 11:38:33;;;;;;;11.10;10.20;;;;;;;;;;5028151;28;20447;-78
2023/05/21 11:41:08;;;;;;;11.10;10.40;;;;;;;;;;5028526;28;20471;-77
2023/05/21 11:43:43;;;;;;;11.00;10.20;;;;;;;;;;5027554;28;20416;-77
2023/05/21 11:46:15;;;;;;;11.10;10.20;;;;;;;;;;5021341;28;20470;-76
2023/05/21 11:48:43;;;;;;;11.83;10.93;;;;;;;;;;5016839;28;20451;-77
2023/05/21 11:51:11;;;;;;;11.70;10.70;;;;;;;;;;5016286;28;20479;-76
2023/05/21 11:53:42;;;;;;;11.67;10.67;;;;;;;;;;5015398;28;20558;-76
2023/05/21 11:56:10;;;;;;;10.60;9.80;;;;;;;;;;5015080;28;20455;-77
2023/05/21 11:58:38;;;;;;;10.83;9.97;;;;;;;;;;5013570;28;20462;-77
2023/05/21 12:01:07;;;;;;;11.50;10.50;;;;;;;;;;5013613;28;20498;-76
2023/05/21 12:03:36;;;;;;;10.73;9.97;;;;;;;;;;5013529;28;20519;-74
2023/05/21 12:06:07;;;;;;;10.57;9.67;;;;;;;;;;5013909;28;20509;-76
2023/05/21 12:08:37;;;;;;;11.20;10.30;;;;;;;;;;5015717;28;20459;-76
2023/05/21 12:11:06;;;;;;;11.60;10.40;;;;;;;;;;5016067;28;20479;-75
2023/05/21 12:13:34;;;;;;;10.20;9.20;;;;;;;;;;5013597;28;20467;-75
2023/05/21 12:16:03;;;;;;;9.87;9.07;;;;;;;;;;5017397;28;20560;-74
2023/05/21 12:18:34;;;;;;;10.13;9.33;;;;;;;;;;5018503;28;20461;-77
2023/05/21 12:21:05;;;;;;;10.47;9.57;;;;;;;;;;5015276;28;20562;-75
2023/05/21 12:23:39;;;;;;;10.93;10.13;;;;;;;;;;5014301;28;20505;-76
2023/05/21 12:26:11;;;;;;;10.10;9.40;;;;;;;;;;5013825;28;20483;-76
2023/05/21 12:28:40;;;;;;;9.90;9.17;;;;;;;;;;5014302;28;20452;-76
2023/05/21 12:31:17;;;;;;;10.63;9.87;;;;;;;;;;5013835;28;20518;-77
2023/05/21 12:33:47;;;;;;;10.60;9.70;;;;;;;;;;5014359;28;20446;-77
2023/05/21 12:36:30;;;;;;;11.07;10.27;;;;;;;;;;5017175;28;20439;-77
2023/05/21 12:39:02;;;;;;;11.17;10.13;;;;;;;;;;5014968;28;20462;-77
2023/05/21 12:41:32;;;;;;;10.70;9.80;;;;;;;;;;5018175;28;20483;-76
2023/05/21 12:44:00;;;;;;;10.03;9.23;;;;;;;;;;5013327;28;20551;-77
2023/05/21 12:46:31;;;;;;;10.60;9.80;;;;;;;;;;5013246;28;20494;-76
2023/05/21 12:49:03;;;;;;;10.73;9.87;;;;;;;;;;5013848;28;20456;-77
2023/05/21 12:51:39;;;;;;;10.13;9.33;;;;;;;;;;5013658;28;20675;-75
2023/05/21 12:57:07;;;;;;;9.37;8.57;;;;;;;;;;5010927;28;20877;-78
2023/05/21 12:59:56;;;;;;;10.07;9.23;;;;;;;;;;5015182;28;20991;-75
2023/05/21 13:02:24;;;;;;;9.30;8.60;;;;;;;;;;5014669;28;20528;-77
2023/05/21 13:04:57;;;;;;;9.47;8.77;;;;;;;;;;5015105;28;20542;-77
2023/05/21 13:07:28;;;;;;;10.57;9.50;;;;;;;;;;5015069;28;20468;-78
2023/05/21 13:09:58;;;;;;;9.93;8.93;;;;;;;;;;5015117;28;20502;-76
2023/05/21 13:12:31;;;;;;;9.93;9.23;;;;;;;;;;5014696;28;20809;-76
2023/05/21 13:15:04;;;;;;;10.83;10.07;;;;;;;;;;5013792;28;20443;-76
2023/05/21 13:17:43;;;;;;;10.27;9.47;;;;;;;;;;5014029;28;20477;-76
2023/05/21 13:20:16;;;;;;;10.53;9.53;;;;;;;;;;5015551;28;20482;-75
2023/05/21 13:22:48;;;;;;;9.57;8.67;;;;;;;;;;5015078;28;20451;-76
2023/05/21 13:25:20;;;;;;;9.13;8.43;;;;;;;;;;5014136;28;20479;-77
2023/05/21 13:27:56;;;;;;;9.00;8.30;;;;;;;;;;5014900;28;20861;-77
2023/05/21 13:30:24;;;;;;;8.33;7.73;;;;;;;;;;5013840;28;20788;-77
2023/05/21 13:33:08;;;;;;;7.90;6.80;;;;;;;;;;5014392;28;20524;-77
2023/05/21 13:35:44;;;;;;;7.00;6.33;;;;;;;;;;5015247;28;20840;-76
2023/05/21 13:38:16;;;;;;;7.83;7.27;;;;;;;;;;5013938;28;20447;-76
2023/05/21 13:40:44;;;;;;;7.23;6.57;;;;;;;;;;5013545;28;20506;-77
2023/05/21 13:43:23;;;;;;;7.13;6.63;;;;;;;;;;5015808;28;20452;-75
2023/05/21 13:45:51;;;;;;;7.77;6.93;;;;;;;;;;5016726;28;20506;-77
2023/05/21 13:48:19;;;;;;;7.03;6.53;;;;;;;;;;5016227;28;20513;-75
2023/05/21 13:50:55;;;;;;;8.60;7.70;;;;;;;;;;5015950;28;20521;-77
2023/05/21 13:53:32;;;;;;;7.77;6.90;;;;;;;;;;5015642;28;20427;-76
2023/05/21 13:56:02;;;;;;;8.00;7.40;;;;;;;;;;5016327;28;20439;-78
2023/05/21 13:58:33;;;;;;;6.67;6.17;;;;;;;;;;5015174;28;20455;-78
2023/05/21 14:01:01;;;;;;;8.30;7.60;;;;;;;;;;5016072;28;20476;-75
2023/05/21 14:03:29;;;;;;;7.70;7.20;;;;;;;;;;5018768;28;20623;-77
2023/05/21 14:06:03;;;;;;;7.50;7.00;;;;;;;;;;5018406;28;20530;-75
2023/05/21 14:08:30;;;;;;;8.27;7.07;;;;;;;;;;5018749;28;20455;-76
2023/05/21 14:11:09;;;;;;;7.60;6.97;;;;;;;;;;5019452;28;20977;-76
2023/05/21 14:13:42;;;;;;;8.37;7.57;;;;;;;;;;5019904;28;20435;-76
2023/05/21 14:16:09;;;;;;;8.30;7.70;;;;;;;;;;5020340;28;20870;-77
2023/05/21 14:18:39;;;;;;;8.07;7.40;;;;;;;;;;5021410;28;20446;-77
2023/05/21 14:21:07;;;;;;;8.10;7.33;;;;;;;;;;5018066;28;20471;-76
2023/05/21 14:23:35;;;;;;;8.13;7.37;;;;;;;;;;5018455;28;20459;-77
2023/05/21 14:26:03;;;;;;;8.17;7.43;;;;;;;;;;5016497;28;20552;-75
2023/05/21 14:28:31;;;;;;;7.70;7.20;;;;;;;;;;5020674;28;20459;-75
2023/05/21 14:31:01;;;;;;;7.70;7.10;;;;;;;;;;5021232;28;20528;-76
2023/05/21 14:33:29;;;;;;;7.50;7.00;;;;;;;;;;5019544;28;20451;-75
2023/05/21 14:35:57;;;;;;;7.53;7.03;;;;;;;;;;5020170;28;20941;-77
2023/05/21 14:38:27;;;;;;;8.60;8.00;;;;;;;;;;5023682;28;20482;-76
2023/05/21 14:40:58;;;;;;;7.20;6.70;;;;;;;;;;5021192;28;20471;-77
2023/05/21 14:43:28;;;;;;;7.67;7.13;;;;;;;;;;5021129;28;20470;-77
2023/05/21 14:45:56;;;;;;;9.77;7.10;;;;;;;;;;5017843;28;20475;-76
2023/05/21 14:48:29;;;;;;;7.87;7.27;;;;;;;;;;5019670;28;20454;-78
2023/05/21 14:50:58;;;;;;;8.43;7.83;;;;;;;;;;5020157;28;20481;-77
2023/05/21 14:53:28;;;;;;;6.73;6.23;;;;;;;;;;5018381;28;20622;-77
2023/05/21 14:55:58;;;;;;;7.70;7.00;;;;;;;;;;5018728;28;20485;-77
2023/05/21 14:58:26;;;;;;;6.13;5.63;;;;;;;;;;5019982;28;20455;-76
2023/05/21 15:00:54;;;;;;;5.40;5.00;;;;;;;;;;5016918;28;20475;-77
2023/05/21 15:03:41;;;;;;;10.10;5.43;;;;;;;;;;5015781;28;20463;-75
2023/05/21 15:06:09;;;;;;;7.73;5.70;;;;;;;;;;5016440;28;20494;-77
2023/05/21 15:08:37;;;;;;;6.70;6.20;;;;;;;;;;5019527;28;20793;-78
2023/05/21 15:11:08;;;;;;;6.57;5.93;;;;;;;;;;5017849;28;20478;-78
2023/05/21 15:13:45;;;;;;;6.67;6.17;;;;;;;;;;5018624;28;20443;-78
2023/05/21 15:16:13;;;;;;;7.50;6.37;;;;;;;;;;5017529;28;20454;-75
2023/05/21 15:18:42;;;;;;;6.80;6.30;;;;;;;;;;5017489;28;20526;-79
2023/05/21 15:21:11;;;;;;;5.43;5.10;;;;;;;;;;5017083;28;20575;-77
2023/05/21 15:23:46;;;;;;;5.57;5.17;;;;;;;;;;5017943;28;20538;-77
2023/05/21 15:26:17;;;;;;;5.63;5.13;;;;;;;;;;5022943;28;20482;-77
2023/05/21 15:28:45;;;;;;;6.00;5.50;;;;;;;;;;5021627;28;20502;-74
2023/05/21 15:31:13;;;;;;;4.97;4.57;;;;;;;;;;5019055;28;20455;-76
2023/05/21 15:33:46;;;;;;;4.80;4.40;;;;;;;;;;5018926;28;20494;-77
2023/05/21 15:36:14;;;;;;;5.00;4.60;;;;;;;;;;5022681;28;20518;-75
2023/05/21 15:38:43;;;;;;;16.60;5.43;;;;;;;;;;5022421;28;20527;-75
2023/05/21 15:41:14;;;;;;;5.20;4.80;;;;;;;;;;5024852;28;20487;-77
2023/05/21 15:43:42;;;;;;;4.77;4.47;;;;;;;;;;5025811;28;20451;-76
2023/05/21 15:46:11;;;;;;;4.93;4.63;;;;;;;;;;5026525;28;20537;-76
2023/05/21 15:48:48;;;;;;;5.87;5.20;;;;;;;;;;5027024;28;20520;-77
2023/05/21 15:51:18;;;;;;;5.10;4.70;;;;;;;;;;5026316;28;20483;-77
2023/05/21 15:53:50;;;;;;;6.07;5.57;;;;;;;;;;5025518;28;20454;-75
2023/05/21 15:56:18;;;;;;;6.20;5.80;;;;;;;;;;5023359;28;20459;-78
2023/05/21 15:59:04;;;;;;;5.30;5.00;;;;;;;;;;5023941;28;20509;-76
2023/05/21 16:01:36;;;;;;;6.80;6.30;;;;;;;;;;5021813;28;20583;-76
2023/05/21 16:04:04;;;;;;;7.03;6.53;;;;;;;;;;5022696;28;20542;-77
2023/05/21 16:06:39;;;;;;;7.30;6.80;;;;;;;;;;5022936;28;20475;-78
2023/05/21 16:09:09;;;;;;;6.67;6.17;;;;;;;;;;5017849;28;20515;-75
2023/05/21 16:11:53;;;;;;;6.63;6.10;;;;;;;;;;5018814;28;20532;-77
2023/05/21 16:14:29;;;;;;;7.77;7.10;;;;;;;;;;5018364;28;20453;-76
2023/05/21 16:17:00;;;;;;;12.03;11.00;;;;;;;;;;5019974;28;20915;-77
2023/05/21 16:19:28;;;;;;;7.27;6.67;;;;;;;;;;5022124;28;20471;-76
2023/05/21 16:22:04;;;;;;;8.00;7.30;;;;;;;;;;5020293;28;20467;-76
2023/05/21 16:24:38;;;;;;;7.00;6.50;;;;;;;;;;5018678;28;20449;-78
2023/05/21 16:29:51;;;;;;;9.77;7.43;;;;;;;;;;5023316;28;20491;-76
2023/05/21 16:32:27;;;;;;;7.40;6.90;;;;;;;;;;5026015;28;20534;-77
2023/05/21 16:35:00;;;;;;;7.70;7.20;;;;;;;;;;5025993;28;20415;-76
2023/05/21 16:37:30;;;;;;;7.87;7.17;;;;;;;;;;5025861;28;20440;-77